Aérodrome :
LOGIN :

S'inscrire | Disclaimer

   EN    FR    IT 

 










Légende :    VFR   VFR Marginal   IFR   IFR Intensif   IFR Très Intensif
Visi : 
Plafond : 
>= 8 km
>= 3000ft
5 à 8 km
1000 à 3000 ft
1500m à 5 km
500 à 1000 ft
800 à 1500m
200 à 500 ft
< 800m
< 200 ft
Symboles :   Orages  Brouillard  Fortes neiges  Fortes précipitations  Vent > 20 kt
SIGMETs :   Divers  Orages  Givrage  Turbulence  Onde Orograph.  Cendres Volcan.






- Altitude de l'aérodrome : 174 ft
- Code IATA : RYG


ENRY - Moss , Rygge

DERNIER METAR :
  • 250250Z AUTO VRB02KT 9999NDV SCT022/// BKN048/// 09/05 Q1000

METARs EXPIRÉS :
  • 250220Z AUTO 15003KT 130V200 9999NDV BKN022/// OVC030/// 09/05 Q1000
  • 250150Z AUTO VRB01KT 9999NDV BKN023/// 09/05 Q1000
  • 250120Z AUTO 21003KT 160V240 9999NDV BKN025/// 10/05 Q1000
  • 250050Z AUTO 24005KT 9999NDV NCD 10/06 Q1000
  • 250020Z AUTO 22006KT 190V260 9999NDV FEW025/// 10/06 Q1000

TAF AMD TAF ENRY
Valide du 25 à 01h jusqu'au 26 à 00h UTC


250150Z 2501/2524 VRB05KT 9999 FEW020 SCT030
BECMG 2510/2512 04012KT
BECMG 2517/2519 02020G30KT
TEMPO 2521/2524 4000 RA BKN012



MET'MAP, la Météo Aéronautique d'un coup d'oeil ! - Copyright ORBIFLY Décembre 2007 - Disclaimer

ORBIFLY MET'MAP TEAM :

Programmation & Développement : Alexandra Zaïnal
Sur une idée originale de : Baudouin d'Aumeries
Assistance à la programmation : Marc-Olivier Méhu
Soutien technique & logistique : Manuel Goepfert

Contact : metmap@orbifly.com




SOURCES & CREDITS :

   NOAA